Luthersburg, PA (15848)

7:17 PM EDT on August 29, 2016 (GMT -0400)
Eastern Avenue | | Change Station

Elev 1457 ft 41.12 °N, 78.74 °W | Updated 14 seconds ago

Clear
Clear
82.0 °F
Feels Like 84 °F
N
4.5
Wind Variable Wind from North
Gusts 7.4 mph

Today
High -- | Low -- °F
--% Chance of Precip.
Yesterday
High -- | Low -- °F
Precip. -- in
Pressure 30.17 in
Visibility 10.0 miles
Clouds Clear
Heat Index 84 °F
Dew Point 65 °F
Humidity 56%
Rainfall 0.11 in
Snow Depth Not available.
6:39 AM 7:51 PM
Waning Crescent, 6% visible
METAR KDUJ 292253Z AUTO 33006KT 10SM CLR 26/13 A3021 RMK AO2 SLP215 T02560128
Pressure 30.17 in
Visibility 10.0 miles
Clouds Clear
Heat Index 84 °F
Dew Point 65 °F
Humidity 56%
Rainfall 0.11 in
Snow Depth Not available.
6:39 AM 7:51 PM
Waning Crescent, 6% visible
METAR KDUJ 292253Z AUTO 33006KT 10SM CLR 26/13 A3021 RMK AO2 SLP215 T02560128

10-Day Weather Forecast

Almanac

Astronomy

Aug. 29, 2016 Rise Set
Actual Time
Civil Twilight
Nautical Twilight
Astronomical Twilight
Moon
Length of Visible Light
Length of Day
Tomorrow will be .
, % of the Moon is Illuminated

Today's Extremes

State Highs State Lows

Community

WunderPhotos

Upload Photos

1,935,692 photos uploaded!

WunderBlog® & News

Nearby

Air Quality

  Air Quality AQ Index Pollutant
Not available.

Snow Depth

Station Depth Elevation

Earthquake Activity

City Distance Mag. Time & Date
Minimum magnitude displayed is 2.5.

Coastal Water Temperatures

Place Temperature

Stations

Nearby Weather Stations

Station Location Temp. Windchill Dew Point Humidity Wind Precip. Elev Updated Type
                   

Watches & Warnings

There are currently no watches in effect.